createdAt,value
2018-06-24T00:00:09.845Z,0.00
2018-06-24T00:01:09.824Z,0.00
2018-06-24T00:02:09.830Z,0.00
2018-06-24T00:03:09.824Z,0.00
2018-06-24T00:04:09.825Z,0.00
2018-06-24T00:05:09.823Z,0.00
2018-06-24T00:06:09.825Z,0.00
2018-06-24T00:07:09.839Z,0.00
2018-06-24T00:08:09.822Z,0.00
2018-06-24T00:09:09.825Z,0.00
2018-06-24T00:10:09.824Z,0.00
2018-06-24T00:11:09.907Z,0.00
2018-06-24T00:12:09.821Z,0.00
2018-06-24T00:13:09.819Z,0.00
2018-06-24T00:14:09.844Z,0.00
2018-06-24T00:15:09.820Z,0.00
2018-06-24T00:16:09.819Z,0.00
2018-06-24T00:17:09.824Z,0.00
2018-06-24T00:18:09.817Z,0.00
2018-06-24T00:19:09.819Z,0.00
2018-06-24T00:20:09.818Z,0.00
2018-06-24T00:21:09.817Z,0.00
2018-06-24T00:22:09.816Z,0.00
2018-06-24T00:23:09.816Z,0.00
2018-06-24T00:24:09.821Z,0.00
2018-06-24T00:25:09.814Z,0.00
2018-06-24T00:26:09.815Z,0.00
2018-06-24T00:27:09.854Z,0.00
2018-06-24T00:28:09.813Z,0.00
2018-06-24T00:29:09.813Z,0.00
2018-06-24T00:30:09.815Z,0.00
2018-06-24T00:31:09.825Z,0.00
2018-06-24T00:32:09.812Z,0.00
2018-06-24T00:33:09.811Z,0.00
2018-06-24T00:34:09.825Z,0.00
2018-06-24T00:35:09.809Z,0.00
2018-06-24T00:36:09.815Z,0.00
2018-06-24T00:37:09.866Z,0.00
2018-06-24T00:38:09.859Z,0.00
2018-06-24T00:39:09.810Z,0.00
2018-06-24T00:40:09.808Z,0.00
2018-06-24T00:41:09.806Z,0.00
2018-06-24T00:42:09.813Z,0.00
2018-06-24T00:43:09.818Z,0.00
2018-06-24T00:44:09.805Z,0.00
2018-06-24T00:45:09.806Z,0.00
2018-06-24T00:46:09.805Z,0.00
2018-06-24T00:47:09.812Z,0.00
2018-06-24T00:48:09.815Z,0.00
2018-06-24T00:49:09.803Z,0.00
2018-06-24T00:50:09.816Z,0.00
2018-06-24T00:51:09.802Z,0.00
2018-06-24T00:52:09.802Z,0.00
2018-06-24T00:53:09.802Z,0.00
2018-06-24T00:54:09.803Z,0.00
2018-06-24T00:55:09.803Z,0.00
2018-06-24T00:56:09.807Z,0.00
2018-06-24T00:57:09.800Z,0.00
2018-06-24T00:58:09.799Z,0.00
2018-06-24T00:59:09.802Z,0.00
2018-06-24T01:00:09.799Z,0.00
2018-06-24T01:01:09.799Z,0.00
2018-06-24T01:02:09.798Z,0.00
2018-06-24T01:03:09.800Z,0.00
2018-06-24T01:04:09.802Z,0.00
2018-06-24T01:05:09.797Z,0.00
2018-06-24T01:06:09.800Z,0.00
2018-06-24T01:07:09.805Z,0.00
2018-06-24T01:08:09.804Z,0.00
2018-06-24T01:09:09.797Z,0.00
2018-06-24T01:10:09.795Z,0.00
2018-06-24T01:11:09.794Z,0.00
2018-06-24T01:12:09.806Z,0.00
2018-06-24T01:13:09.831Z,0.00
2018-06-24T01:14:09.793Z,0.00
2018-06-24T01:15:09.791Z,0.00
2018-06-24T01:16:09.793Z,0.00
2018-06-24T01:17:09.794Z,0.00
2018-06-24T01:18:09.794Z,0.00
2018-06-24T01:19:09.790Z,0.00
2018-06-24T01:20:09.793Z,0.00
2018-06-24T01:21:09.788Z,0.00
2018-06-24T01:22:09.791Z,0.00
2018-06-24T01:23:09.818Z,0.00
2018-06-24T01:24:09.790Z,0.00
2018-06-24T01:25:09.788Z,0.00
2018-06-24T01:26:09.787Z,0.00
2018-06-24T01:27:09.787Z,0.00
2018-06-24T01:28:09.788Z,0.00
2018-06-24T01:29:09.788Z,0.00
2018-06-24T01:30:09.785Z,0.00
2018-06-24T01:31:09.798Z,0.00
2018-06-24T01:32:09.795Z,0.00
2018-06-24T01:33:09.787Z,0.00
2018-06-24T01:34:09.784Z,0.00
2018-06-24T01:35:09.783Z,0.00
2018-06-24T01:36:09.786Z,0.00
2018-06-24T01:37:09.783Z,0.00
2018-06-24T01:38:09.785Z,0.00
2018-06-24T01:39:09.783Z,0.00
2018-06-24T01:40:09.781Z,0.00
2018-06-24T01:41:09.781Z,0.00
2018-06-24T01:42:09.780Z,0.00
2018-06-24T01:43:09.816Z,0.00
2018-06-24T01:44:09.782Z,0.00
2018-06-24T01:45:09.799Z,0.00
2018-06-24T01:46:09.780Z,0.00
2018-06-24T01:47:09.779Z,0.00
2018-06-24T01:48:09.779Z,0.00
2018-06-24T01:49:09.778Z,0.00
2018-06-24T01:50:09.806Z,0.00
2018-06-24T01:51:09.778Z,0.00
2018-06-24T01:52:09.783Z,0.00
2018-06-24T01:53:09.775Z,0.00
2018-06-24T01:54:09.781Z,0.00
2018-06-24T01:55:09.776Z,0.00
2018-06-24T01:56:09.806Z,0.00
2018-06-24T01:57:09.776Z,0.00
2018-06-24T01:58:09.778Z,0.00
2018-06-24T01:59:09.773Z,0.00
2018-06-24T02:00:09.774Z,0.00
2018-06-24T02:01:09.774Z,0.00
2018-06-24T02:02:09.775Z,0.00
2018-06-24T02:03:09.772Z,0.00
2018-06-24T02:04:09.774Z,0.00
2018-06-24T02:05:09.774Z,0.00
2018-06-24T02:06:09.773Z,0.00
2018-06-24T02:07:09.773Z,0.00
2018-06-24T02:08:09.769Z,0.00
2018-06-24T02:09:09.771Z,0.00
2018-06-24T02:10:09.780Z,0.00
2018-06-24T02:11:09.774Z,0.00
2018-06-24T02:12:09.782Z,0.00
2018-06-24T02:13:09.768Z,0.00
2018-06-24T02:14:09.769Z,0.00
2018-06-24T02:15:09.767Z,0.00
2018-06-24T02:16:09.776Z,0.00
2018-06-24T02:17:09.778Z,0.00
2018-06-24T02:18:09.773Z,0.00
2018-06-24T02:19:09.770Z,0.00
2018-06-24T02:20:09.766Z,0.00
2018-06-24T02:21:09.763Z,0.00
2018-06-24T02:22:09.764Z,0.00
2018-06-24T02:23:09.769Z,0.00
2018-06-24T02:24:09.762Z,0.00
2018-06-24T02:25:09.771Z,0.00
2018-06-24T02:26:09.764Z,0.00
2018-06-24T02:27:09.759Z,0.00
2018-06-24T02:28:09.760Z,0.00
2018-06-24T02:29:09.759Z,0.00
2018-06-24T02:30:09.759Z,0.00
2018-06-24T02:31:09.759Z,0.00
2018-06-24T02:32:09.759Z,0.00
2018-06-24T02:33:09.756Z,0.00
2018-06-24T02:34:09.759Z,0.00
2018-06-24T02:35:09.756Z,0.00
2018-06-24T02:36:09.759Z,0.00
2018-06-24T02:37:09.760Z,0.00
2018-06-24T02:38:09.756Z,0.00
2018-06-24T02:39:09.754Z,0.00
2018-06-24T02:40:09.754Z,0.00
2018-06-24T02:41:09.756Z,0.00
2018-06-24T02:42:09.752Z,0.00
2018-06-24T02:43:09.755Z,0.00
2018-06-24T02:44:09.752Z,0.00
2018-06-24T02:45:09.754Z,0.00
2018-06-24T02:46:09.785Z,0.00
2018-06-24T02:47:09.749Z,0.00
2018-06-24T02:48:09.754Z,0.00
2018-06-24T02:49:09.746Z,0.00
2018-06-24T02:50:09.750Z,0.00
2018-06-24T02:51:09.768Z,0.00
2018-06-24T02:52:09.748Z,0.00
2018-06-24T02:53:09.749Z,0.00
2018-06-24T02:54:09.746Z,0.00
2018-06-24T02:55:09.751Z,0.00
2018-06-24T02:56:09.745Z,0.00
2018-06-24T02:57:09.744Z,0.00
2018-06-24T02:58:09.743Z,0.00
2018-06-24T02:59:09.742Z,0.00
2018-06-24T03:00:09.742Z,0.00
2018-06-24T03:01:09.740Z,0.00
2018-06-24T03:02:09.743Z,0.00
2018-06-24T03:03:09.742Z,0.00
2018-06-24T03:04:09.740Z,0.00
2018-06-24T03:05:09.738Z,0.00
2018-06-24T03:06:09.739Z,0.00
2018-06-24T03:07:09.741Z,0.00
2018-06-24T03:08:09.738Z,0.00
2018-06-24T03:09:09.735Z,0.00
2018-06-24T03:10:09.737Z,0.00
2018-06-24T03:11:09.737Z,0.00
2018-06-24T03:12:09.739Z,0.00
2018-06-24T03:13:09.734Z,0.00
2018-06-24T03:14:09.735Z,0.00
2018-06-24T03:15:09.736Z,0.00
2018-06-24T03:16:09.742Z,0.00
2018-06-24T03:17:09.732Z,0.00
2018-06-24T03:18:37.337Z,0.00
2018-06-24T03:19:09.742Z,5.63
2018-06-24T03:20:09.730Z,5.63
2018-06-24T03:21:09.729Z,5.63
2018-06-24T03:22:09.729Z,5.63
2018-06-24T03:23:09.729Z,5.63
2018-06-24T03:24:09.730Z,5.63
2018-06-24T03:25:09.727Z,5.63
2018-06-24T03:26:09.945Z,5.63
2018-06-24T03:27:09.726Z,5.63
2018-06-24T03:28:09.725Z,5.63
2018-06-24T03:29:09.724Z,5.63
2018-06-24T03:30:09.724Z,5.63
2018-06-24T03:31:09.724Z,5.63
2018-06-24T03:32:09.724Z,5.63
2018-06-24T03:33:09.722Z,5.63
2018-06-24T03:34:09.722Z,5.63
2018-06-24T03:35:09.721Z,5.63
2018-06-24T03:36:09.724Z,5.63
2018-06-24T03:37:09.719Z,5.63
2018-06-24T03:38:09.719Z,11.25
2018-06-24T03:39:09.720Z,11.25
2018-06-24T03:40:09.718Z,11.25
2018-06-24T03:41:09.717Z,11.25
2018-06-24T03:42:09.717Z,11.25
2018-06-24T03:43:09.715Z,11.25
2018-06-24T03:44:09.721Z,11.25
2018-06-24T03:45:09.715Z,11.25
2018-06-24T03:46:09.714Z,11.25
2018-06-24T03:47:09.715Z,16.88
2018-06-24T03:48:09.713Z,16.88
2018-06-24T03:49:09.735Z,16.88
2018-06-24T03:50:09.716Z,16.88
2018-06-24T03:51:09.711Z,16.88
2018-06-24T03:52:09.713Z,22.50
2018-06-24T03:53:09.709Z,22.50
2018-06-24T03:54:09.709Z,22.50
2018-06-24T03:55:09.710Z,22.50
2018-06-24T03:56:09.710Z,22.50
2018-06-24T03:57:09.709Z,28.13
2018-06-24T03:58:09.762Z,28.13
2018-06-24T03:59:09.708Z,28.13
2018-06-24T04:00:09.708Z,28.13
2018-06-24T04:01:09.706Z,33.75
2018-06-24T04:02:09.706Z,33.75
2018-06-24T04:03:09.716Z,28.13
2018-06-24T04:04:09.706Z,28.13
2018-06-24T04:05:09.707Z,28.13
2018-06-24T04:06:09.704Z,28.13
2018-06-24T04:07:09.704Z,28.13
2018-06-24T04:08:09.704Z,28.13
2018-06-24T04:09:09.703Z,28.13
2018-06-24T04:10:09.702Z,28.13
2018-06-24T04:11:09.701Z,28.13
2018-06-24T04:12:09.702Z,28.13
2018-06-24T04:13:09.701Z,28.13
2018-06-24T04:14:09.702Z,28.13
2018-06-24T04:15:09.700Z,28.13
2018-06-24T04:16:09.701Z,28.13
2018-06-24T04:17:09.699Z,28.13
2018-06-24T04:18:09.698Z,28.13
2018-06-24T04:19:09.700Z,28.13
2018-06-24T04:20:09.701Z,33.75
2018-06-24T04:21:09.697Z,33.75
2018-06-24T04:22:09.697Z,33.75
2018-06-24T04:23:09.720Z,33.75
2018-06-24T04:24:09.698Z,33.75
2018-06-24T04:25:09.697Z,33.75
2018-06-24T04:26:09.696Z,33.75
2018-06-24T04:27:09.697Z,28.13
2018-06-24T04:28:09.696Z,28.13
2018-06-24T04:29:09.695Z,33.75
2018-06-24T04:30:09.697Z,33.75
2018-06-24T04:31:09.712Z,33.75
2018-06-24T04:32:09.695Z,33.75
2018-06-24T04:33:09.694Z,33.75
2018-06-24T04:34:09.697Z,33.75
2018-06-24T04:35:09.693Z,33.75
2018-06-24T04:36:09.701Z,39.38
2018-06-24T04:37:09.692Z,39.38
2018-06-24T04:38:09.692Z,39.38
2018-06-24T04:39:09.691Z,39.38
2018-06-24T04:40:09.692Z,39.38
2018-06-24T04:41:09.694Z,39.38
2018-06-24T04:42:09.743Z,39.38
2018-06-24T04:43:09.692Z,39.38
2018-06-24T04:44:09.703Z,39.38
2018-06-24T04:45:09.691Z,39.38
2018-06-24T04:46:09.688Z,39.38
2018-06-24T04:47:09.714Z,39.38
2018-06-24T04:48:09.689Z,33.75
2018-06-24T04:49:09.687Z,33.75
2018-06-24T04:50:09.691Z,33.75
2018-06-24T04:51:09.689Z,33.75
2018-06-24T04:52:09.690Z,33.75
2018-06-24T04:53:09.686Z,33.75
2018-06-24T04:54:09.689Z,33.75
2018-06-24T04:55:09.692Z,33.75
2018-06-24T04:56:09.687Z,39.38
2018-06-24T04:57:09.686Z,39.38
2018-06-24T04:58:09.688Z,45.00
2018-06-24T04:59:09.686Z,45.00
2018-06-24T05:00:09.687Z,50.63
2018-06-24T05:01:09.690Z,50.63
2018-06-24T05:02:09.684Z,50.63
2018-06-24T05:03:09.684Z,56.25
2018-06-24T05:04:09.689Z,61.88
2018-06-24T05:05:09.683Z,61.88
2018-06-24T05:06:09.688Z,61.88
2018-06-24T05:07:09.684Z,67.50
2018-06-24T05:08:09.683Z,67.50
2018-06-24T05:09:09.682Z,67.50
2018-06-24T05:10:09.685Z,67.50
2018-06-24T05:11:09.684Z,67.50
2018-06-24T05:12:09.683Z,67.50
2018-06-24T05:13:09.684Z,73.13
2018-06-24T05:14:09.682Z,73.13
2018-06-24T05:15:09.682Z,73.13
2018-06-24T05:16:09.684Z,73.13
2018-06-24T05:17:09.681Z,73.13
2018-06-24T05:18:09.681Z,73.13
2018-06-24T05:19:09.681Z,73.13
2018-06-24T05:20:09.682Z,73.13
2018-06-24T05:21:09.680Z,73.13
2018-06-24T05:22:09.681Z,73.13
2018-06-24T05:23:09.679Z,73.13
2018-06-24T05:24:09.680Z,73.13
2018-06-24T05:25:09.681Z,73.13
2018-06-24T05:26:09.683Z,73.13
2018-06-24T05:27:09.682Z,78.75
2018-06-24T05:28:09.680Z,78.75
2018-06-24T05:29:09.679Z,78.75
2018-06-24T05:30:09.679Z,84.38
2018-06-24T05:31:09.680Z,90.00
2018-06-24T05:32:09.681Z,90.00
2018-06-24T05:33:09.681Z,101.25
2018-06-24T05:34:09.682Z,123.75
2018-06-24T05:35:09.692Z,123.75
2018-06-24T05:36:09.681Z,118.13
2018-06-24T05:37:09.681Z,129.38
2018-06-24T05:38:09.680Z,106.88
2018-06-24T05:39:09.679Z,106.88
2018-06-24T05:40:09.684Z,101.25
2018-06-24T05:41:09.680Z,101.25
2018-06-24T05:42:09.686Z,101.25
2018-06-24T05:43:09.752Z,101.25
2018-06-24T05:44:09.684Z,106.88
2018-06-24T05:45:09.681Z,135.00
2018-06-24T05:46:09.682Z,129.38
2018-06-24T05:47:09.682Z,101.25
2018-06-24T05:48:09.688Z,95.63
2018-06-24T05:49:09.683Z,95.63
2018-06-24T05:50:09.684Z,101.25
2018-06-24T05:51:09.685Z,106.88
2018-06-24T05:52:09.688Z,106.88
2018-06-24T05:53:09.686Z,112.50
2018-06-24T05:54:09.740Z,112.50
2018-06-24T05:55:09.689Z,118.13
2018-06-24T05:56:09.690Z,118.13
2018-06-24T05:57:09.686Z,118.13
2018-06-24T05:58:09.688Z,118.13
2018-06-24T05:59:09.687Z,118.13
2018-06-24T06:00:09.687Z,118.13
2018-06-24T06:01:09.688Z,118.13
2018-06-24T06:02:09.687Z,118.13
2018-06-24T06:03:09.689Z,123.75
2018-06-24T06:04:09.693Z,123.75
2018-06-24T06:05:09.690Z,123.75
2018-06-24T06:06:09.691Z,129.38
2018-06-24T06:07:09.692Z,129.38
2018-06-24T06:08:09.692Z,129.38
2018-06-24T06:09:09.691Z,129.38
2018-06-24T06:10:09.741Z,140.63
2018-06-24T06:11:09.692Z,135.00
2018-06-24T06:12:09.693Z,129.38
2018-06-24T06:13:09.699Z,123.75
2018-06-24T06:14:09.698Z,123.75
2018-06-24T06:15:09.696Z,129.38
2018-06-24T06:16:09.738Z,140.63
2018-06-24T06:17:09.700Z,140.63
2018-06-24T06:18:09.698Z,146.25
2018-06-24T06:19:09.696Z,376.88
2018-06-24T06:20:09.698Z,208.13
2018-06-24T06:21:09.697Z,326.25
2018-06-24T06:22:09.698Z,174.38
2018-06-24T06:23:09.702Z,146.25
2018-06-24T06:24:09.720Z,146.25
2018-06-24T06:25:09.704Z,146.25
2018-06-24T06:26:09.701Z,281.25
2018-06-24T06:27:09.701Z,230.63
2018-06-24T06:28:09.702Z,253.13
2018-06-24T06:29:09.702Z,286.88
2018-06-24T06:30:09.726Z,281.25
2018-06-24T06:31:09.704Z,258.75
2018-06-24T06:32:09.705Z,230.63
2018-06-24T06:33:09.705Z,258.75
2018-06-24T06:34:09.705Z,258.75
2018-06-24T06:35:09.707Z,236.25
2018-06-24T06:36:09.709Z,185.63
2018-06-24T06:37:09.708Z,174.38
2018-06-24T06:38:09.714Z,174.38
2018-06-24T06:39:09.712Z,174.38
2018-06-24T06:40:09.712Z,174.38
2018-06-24T06:41:09.713Z,157.50
2018-06-24T06:42:09.714Z,146.25
2018-06-24T06:43:09.715Z,140.63
2018-06-24T06:44:09.716Z,140.63
2018-06-24T06:45:09.818Z,140.63
2018-06-24T06:46:09.719Z,146.25
2018-06-24T06:47:09.719Z,151.88
2018-06-24T06:48:09.722Z,163.13
2018-06-24T06:49:09.734Z,168.75
2018-06-24T06:50:09.721Z,180.00
2018-06-24T06:51:09.739Z,202.50
2018-06-24T06:52:09.724Z,225.00
2018-06-24T06:53:09.724Z,208.13
2018-06-24T06:54:09.727Z,196.88
2018-06-24T06:55:09.729Z,225.00
2018-06-24T06:56:09.732Z,225.00
2018-06-24T06:57:09.728Z,213.75
2018-06-24T06:58:09.746Z,174.38
2018-06-24T06:59:09.733Z,196.88
2018-06-24T07:00:09.769Z,185.63
2018-06-24T07:01:09.733Z,208.13
2018-06-24T07:02:09.740Z,168.75
2018-06-24T07:03:09.735Z,168.75
2018-06-24T07:04:09.737Z,168.75
2018-06-24T07:05:09.753Z,151.88
2018-06-24T07:06:09.742Z,146.25
2018-06-24T07:07:09.740Z,151.88
2018-06-24T07:08:09.742Z,151.88
2018-06-24T07:09:09.745Z,151.88
2018-06-24T07:10:09.744Z,140.63
2018-06-24T07:11:09.746Z,140.63
2018-06-24T07:12:09.747Z,146.25
2018-06-24T07:13:09.781Z,151.88
2018-06-24T07:14:09.751Z,151.88
2018-06-24T07:15:09.751Z,157.50
2018-06-24T07:16:09.751Z,157.50
2018-06-24T07:17:09.751Z,157.50
2018-06-24T07:18:09.753Z,151.88
2018-06-24T07:19:09.754Z,146.25
2018-06-24T07:20:09.755Z,140.63
2018-06-24T07:21:09.756Z,140.63
2018-06-24T07:22:09.768Z,140.63
2018-06-24T07:23:09.760Z,146.25
2018-06-24T07:24:09.760Z,146.25
2018-06-24T07:25:09.761Z,146.25
2018-06-24T07:26:09.761Z,140.63
2018-06-24T07:27:09.763Z,129.38
2018-06-24T07:28:09.765Z,135.00
2018-06-24T07:29:09.765Z,135.00
2018-06-24T07:30:09.771Z,135.00
2018-06-24T07:31:09.767Z,123.75
2018-06-24T07:32:09.770Z,129.38
2018-06-24T07:33:09.810Z,140.63
2018-06-24T07:34:09.772Z,157.50
2018-06-24T07:35:09.779Z,168.75
2018-06-24T07:36:09.781Z,163.13
2018-06-24T07:37:09.775Z,157.50
2018-06-24T07:38:09.784Z,157.50
2018-06-24T07:39:09.807Z,168.75
2018-06-24T07:40:09.777Z,174.38
2018-06-24T07:41:09.778Z,180.00
2018-06-24T07:42:09.779Z,168.75
2018-06-24T07:43:09.780Z,174.38
2018-06-24T07:44:09.782Z,185.63
2018-06-24T07:45:09.786Z,185.63
2018-06-24T07:46:09.784Z,180.00
2018-06-24T07:47:09.786Z,185.63
2018-06-24T07:48:09.790Z,180.00
2018-06-24T07:49:09.789Z,185.63
2018-06-24T07:50:09.794Z,180.00
2018-06-24T07:51:09.799Z,180.00
2018-06-24T07:52:09.790Z,191.25
2018-06-24T07:53:09.792Z,202.50
2018-06-24T07:54:09.795Z,219.38
2018-06-24T07:55:09.799Z,230.63
2018-06-24T07:56:09.803Z,230.63
2018-06-24T07:57:09.797Z,230.63
2018-06-24T07:58:09.797Z,225.00
2018-06-24T07:59:09.802Z,208.13
2018-06-24T08:00:09.801Z,191.25
2018-06-24T08:01:09.810Z,174.38
2018-06-24T08:02:09.804Z,180.00
2018-06-24T08:03:09.809Z,185.63
2018-06-24T08:04:09.829Z,185.63
2018-06-24T08:05:09.869Z,185.63
2018-06-24T08:06:09.812Z,185.63
2018-06-24T08:07:09.814Z,191.25
2018-06-24T08:08:09.813Z,191.25
2018-06-24T08:09:09.815Z,191.25
2018-06-24T08:10:09.816Z,191.25
2018-06-24T08:11:09.853Z,196.88
2018-06-24T08:12:09.818Z,196.88
2018-06-24T08:13:09.822Z,196.88
2018-06-24T08:14:09.821Z,191.25
2018-06-24T08:15:09.822Z,191.25
2018-06-24T08:16:09.826Z,196.88
2018-06-24T08:17:09.827Z,196.88
2018-06-24T08:18:09.830Z,196.88
2018-06-24T08:19:09.832Z,202.50
2018-06-24T08:20:09.830Z,202.50
2018-06-24T08:21:09.831Z,208.13
2018-06-24T08:22:09.833Z,213.75
2018-06-24T08:23:09.836Z,208.13
2018-06-24T08:24:09.836Z,196.88
2018-06-24T08:25:09.838Z,213.75
2018-06-24T08:26:09.845Z,225.00
2018-06-24T08:27:09.843Z,230.63
2018-06-24T08:28:09.845Z,225.00
2018-06-24T08:29:09.845Z,219.38
2018-06-24T08:30:09.846Z,208.13
2018-06-24T08:31:09.848Z,208.13
2018-06-24T08:32:09.852Z,208.13
2018-06-24T08:33:09.851Z,196.88
2018-06-24T08:34:09.854Z,196.88
2018-06-24T08:35:09.858Z,196.88
2018-06-24T08:36:09.859Z,191.25
2018-06-24T08:37:09.883Z,191.25
2018-06-24T08:38:09.861Z,180.00
2018-06-24T08:39:09.865Z,168.75
2018-06-24T08:40:09.867Z,163.13
2018-06-24T08:41:09.871Z,163.13
2018-06-24T08:42:09.870Z,168.75
2018-06-24T08:43:09.871Z,168.75
2018-06-24T08:44:09.874Z,163.13
2018-06-24T08:45:09.876Z,163.13
2018-06-24T08:46:09.879Z,163.13
2018-06-24T08:47:09.941Z,163.13
2018-06-24T08:48:09.886Z,157.50
2018-06-24T08:49:09.881Z,157.50
2018-06-24T08:50:09.888Z,151.88
2018-06-24T08:51:09.934Z,151.88
2018-06-24T08:52:09.892Z,146.25
2018-06-24T08:53:09.890Z,146.25
2018-06-24T08:54:09.892Z,140.63
2018-06-24T08:55:09.902Z,135.00
2018-06-24T08:56:09.897Z,129.38
2018-06-24T08:57:09.898Z,118.13
2018-06-24T08:58:09.899Z,112.50
2018-06-24T08:59:09.902Z,118.13
2018-06-24T09:00:09.905Z,123.75
2018-06-24T09:01:09.904Z,129.38
2018-06-24T09:02:09.907Z,129.38
2018-06-24T09:03:09.908Z,135.00
2018-06-24T09:04:09.914Z,135.00
2018-06-24T09:05:09.913Z,135.00
2018-06-24T09:06:09.913Z,135.00
2018-06-24T09:07:09.917Z,135.00
2018-06-24T09:08:09.922Z,135.00
2018-06-24T09:09:09.918Z,129.38
2018-06-24T09:10:09.926Z,129.38
2018-06-24T09:11:09.927Z,129.38
2018-06-24T09:12:09.925Z,129.38
2018-06-24T09:13:09.925Z,135.00
2018-06-24T09:14:09.927Z,135.00
2018-06-24T09:15:09.931Z,135.00
2018-06-24T09:16:09.930Z,140.63
2018-06-24T09:17:09.949Z,146.25
2018-06-24T09:18:09.933Z,151.88
2018-06-24T09:19:09.934Z,157.50
2018-06-24T09:20:09.938Z,157.50
2018-06-24T09:21:09.938Z,157.50
2018-06-24T09:22:10.002Z,157.50
2018-06-24T09:23:09.942Z,151.88
2018-06-24T09:24:09.942Z,146.25
2018-06-24T09:25:09.946Z,135.00
2018-06-24T09:26:09.945Z,135.00
2018-06-24T09:27:09.969Z,135.00
2018-06-24T09:28:09.952Z,135.00
2018-06-24T09:29:09.948Z,135.00
2018-06-24T09:30:09.953Z,135.00
2018-06-24T09:31:09.950Z,140.63
2018-06-24T09:32:09.952Z,140.63
2018-06-24T09:33:09.953Z,146.25
2018-06-24T09:34:09.956Z,151.88
2018-06-24T09:35:09.957Z,163.13
2018-06-24T09:36:09.960Z,174.38
2018-06-24T09:37:09.958Z,185.63
2018-06-24T09:38:09.965Z,191.25
2018-06-24T09:39:09.960Z,191.25
2018-06-24T09:40:09.964Z,191.25
2018-06-24T09:41:09.966Z,191.25
2018-06-24T09:42:09.964Z,191.25
2018-06-24T09:43:09.969Z,185.63
2018-06-24T09:44:09.969Z,185.63
2018-06-24T09:45:09.973Z,185.63
2018-06-24T09:46:09.978Z,191.25
2018-06-24T09:47:09.972Z,191.25
2018-06-24T09:48:09.975Z,191.25
2018-06-24T09:49:09.975Z,196.88
2018-06-24T09:50:09.976Z,202.50
2018-06-24T09:51:09.980Z,208.13
2018-06-24T09:52:09.979Z,213.75
2018-06-24T09:53:09.985Z,225.00
2018-06-24T09:54:09.981Z,236.25
2018-06-24T09:55:09.984Z,258.75
2018-06-24T09:56:09.986Z,270.00
2018-06-24T09:57:09.991Z,258.75
2018-06-24T09:58:09.988Z,258.75
2018-06-24T09:59:09.992Z,241.88
2018-06-24T10:00:09.994Z,247.50
2018-06-24T10:01:10.944Z,241.88
2018-06-24T10:02:10.038Z,236.25
2018-06-24T10:03:09.998Z,230.63
2018-06-24T10:04:10.001Z,230.63
2018-06-24T10:05:10.017Z,225.00
2018-06-24T10:06:10.004Z,225.00
2018-06-24T10:07:10.009Z,225.00
2018-06-24T10:08:10.008Z,219.38
2018-06-24T10:09:10.012Z,213.75
2018-06-24T10:10:10.029Z,208.13
2018-06-24T10:11:10.033Z,191.25
2018-06-24T10:12:10.015Z,185.63
2018-06-24T10:13:10.017Z,185.63
2018-06-24T10:14:10.025Z,185.63
2018-06-24T10:15:10.022Z,185.63
2018-06-24T10:16:10.026Z,185.63
2018-06-24T10:17:10.032Z,185.63
2018-06-24T10:18:10.035Z,180.00
2018-06-24T10:19:10.031Z,180.00
2018-06-24T10:20:10.036Z,180.00
2018-06-24T10:21:10.035Z,185.63
2018-06-24T10:22:10.038Z,191.25
2018-06-24T10:23:10.040Z,191.25
2018-06-24T10:24:10.044Z,191.25
2018-06-24T10:25:10.045Z,191.25
2018-06-24T10:26:10.048Z,191.25
2018-06-24T10:27:10.053Z,191.25
2018-06-24T10:28:10.056Z,202.50
2018-06-24T10:29:10.054Z,219.38
2018-06-24T10:30:10.058Z,236.25
2018-06-24T10:31:10.059Z,247.50
2018-06-24T10:32:10.069Z,258.75
2018-06-24T10:33:10.064Z,258.75
2018-06-24T10:34:10.067Z,247.50
2018-06-24T10:35:10.077Z,241.88
2018-06-24T10:36:10.072Z,241.88
2018-06-24T10:37:10.076Z,230.63
2018-06-24T10:38:10.077Z,230.63
2018-06-24T10:39:10.086Z,236.25
2018-06-24T10:40:10.082Z,247.50
2018-06-24T10:41:10.093Z,247.50
2018-06-24T10:42:10.090Z,247.50
2018-06-24T10:43:10.089Z,236.25
2018-06-24T10:44:10.096Z,219.38
2018-06-24T10:45:10.095Z,196.88
2018-06-24T10:46:10.097Z,185.63
2018-06-24T10:47:10.099Z,174.38
2018-06-24T10:48:10.107Z,174.38
2018-06-24T10:49:10.103Z,174.38
2018-06-24T10:50:10.107Z,180.00
2018-06-24T10:51:10.110Z,185.63
2018-06-24T10:52:10.111Z,185.63
2018-06-24T10:53:10.114Z,196.88
2018-06-24T10:54:10.117Z,213.75
2018-06-24T10:55:10.120Z,236.25
2018-06-24T10:56:10.122Z,253.13
2018-06-24T10:57:10.125Z,253.13
2018-06-24T10:58:10.127Z,253.13
2018-06-24T10:59:10.132Z,253.13
2018-06-24T11:00:10.132Z,247.50
2018-06-24T11:01:10.149Z,236.25
2018-06-24T11:02:10.158Z,219.38
2018-06-24T11:03:10.139Z,208.13
2018-06-24T11:04:10.147Z,202.50
2018-06-24T11:05:10.146Z,196.88
2018-06-24T11:06:10.154Z,196.88
2018-06-24T11:07:10.153Z,196.88
2018-06-24T11:08:10.153Z,202.50
2018-06-24T11:09:10.161Z,213.75
2018-06-24T11:10:10.160Z,225.00
2018-06-24T11:11:10.166Z,225.00
2018-06-24T11:12:10.184Z,225.00
2018-06-24T11:13:10.168Z,230.63
2018-06-24T11:14:10.174Z,241.88
2018-06-24T11:15:10.176Z,258.75
2018-06-24T11:16:10.182Z,270.00
2018-06-24T11:17:10.179Z,270.00
2018-06-24T11:18:10.187Z,264.38
2018-06-24T11:19:10.188Z,247.50
2018-06-24T11:20:10.189Z,236.25
2018-06-24T11:21:10.190Z,219.38
2018-06-24T11:22:10.194Z,213.75
2018-06-24T11:23:10.197Z,208.13
2018-06-24T11:24:10.202Z,213.75
2018-06-24T11:25:10.206Z,213.75
2018-06-24T11:26:10.206Z,219.38
2018-06-24T11:27:10.208Z,241.88
2018-06-24T11:28:10.213Z,270.00
2018-06-24T11:29:10.215Z,303.75
2018-06-24T11:30:10.219Z,309.38
2018-06-24T11:31:10.223Z,281.25
2018-06-24T11:32:10.229Z,270.00
2018-06-24T11:33:10.278Z,258.75
2018-06-24T11:34:10.233Z,253.13
2018-06-24T11:35:10.234Z,258.75
2018-06-24T11:36:10.238Z,264.38
2018-06-24T11:37:10.240Z,264.38
2018-06-24T11:38:10.244Z,258.75
2018-06-24T11:39:10.252Z,264.38
2018-06-24T11:40:10.252Z,286.88
2018-06-24T11:41:10.253Z,292.50
2018-06-24T11:42:10.257Z,320.63
2018-06-24T11:43:10.259Z,286.88
2018-06-24T11:44:10.262Z,258.75
2018-06-24T11:45:10.267Z,236.25
2018-06-24T11:46:10.269Z,225.00
2018-06-24T11:47:10.271Z,213.75
2018-06-24T11:48:10.276Z,213.75
2018-06-24T11:49:10.278Z,225.00
2018-06-24T11:50:10.284Z,247.50
2018-06-24T11:51:10.287Z,264.38
2018-06-24T11:52:10.301Z,270.00
2018-06-24T11:53:10.292Z,292.50
2018-06-24T11:54:10.297Z,309.38
2018-06-24T11:55:10.300Z,320.63
2018-06-24T11:56:10.311Z,309.38
2018-06-24T11:57:10.308Z,298.13
2018-06-24T11:58:10.307Z,298.13
2018-06-24T11:59:10.355Z,292.50
2018-06-24T12:00:10.315Z,292.50
2018-06-24T12:01:10.320Z,298.13
2018-06-24T12:02:10.322Z,286.88
2018-06-24T12:03:10.326Z,275.63
2018-06-24T12:04:10.405Z,315.00
2018-06-24T12:05:10.332Z,230.63
2018-06-24T12:06:10.336Z,219.38
2018-06-24T12:07:10.344Z,241.88
2018-06-24T12:08:10.344Z,236.25
2018-06-24T12:09:10.348Z,253.13
2018-06-24T12:10:10.351Z,230.63
2018-06-24T12:11:10.354Z,230.63
2018-06-24T12:12:10.360Z,241.88
2018-06-24T12:13:10.365Z,258.75
2018-06-24T12:14:10.367Z,264.38
2018-06-24T12:15:10.372Z,264.38
2018-06-24T12:16:10.374Z,270.00
2018-06-24T12:17:10.378Z,286.88
2018-06-24T12:18:10.393Z,292.50
2018-06-24T12:19:10.387Z,303.75
2018-06-24T12:20:10.389Z,320.63
2018-06-24T12:21:10.390Z,360.00
2018-06-24T12:22:10.394Z,348.75
2018-06-24T12:23:10.398Z,360.00
2018-06-24T12:24:10.404Z,416.25
2018-06-24T12:25:10.405Z,585.00
2018-06-24T12:26:10.411Z,635.63
2018-06-24T12:27:10.415Z,821.25
2018-06-24T12:28:10.416Z,579.38
2018-06-24T12:29:10.420Z,483.75
2018-06-24T12:30:10.435Z,371.25
2018-06-24T12:31:10.432Z,376.88
2018-06-24T12:32:10.434Z,399.38
2018-06-24T12:33:10.438Z,438.75
2018-06-24T12:34:10.444Z,742.50
2018-06-24T12:35:10.448Z,736.88
2018-06-24T12:36:10.453Z,708.75
2018-06-24T12:37:10.456Z,545.63
2018-06-24T12:38:10.524Z,630.00
2018-06-24T12:39:10.464Z,579.38
2018-06-24T12:40:10.472Z,506.25
2018-06-24T12:41:10.474Z,500.63
2018-06-24T12:42:10.480Z,478.13
2018-06-24T12:43:10.485Z,450.00
2018-06-24T12:44:10.490Z,421.88
2018-06-24T12:45:10.494Z,348.75